Minerva Grace — SVBN7 — position and weather

sailwx.info

Track history (hours):
 
Tides and Currents Weather Stations Pressure Air Temp Water Temp Dewpoint Dewpoint Depression Visibility Wind Speed Wind Dir Waves Ship Positions

Minerva Grace

Last reported at 2016-Feb-08 00:27 UTC. Time now 2016-Feb-09 07:41 UTC.
Position N 41°60' W 009°57'.

Length 183 m; draft 10.5 m.

Type: Ship (hazmat cat C). MMSI: 241193000.

Date/timePositionNaut miles runAvg speedWind from/ knotsBaromVisibWave heightAir tempDewpointWater temp
2016-Feb-08 00:27N 41°60' W 009°57'1111.7
2016-Feb-07 23:33N 41°49' W 009°57'1212.0
2016-Feb-07 22:33N 41°37' W 009°57'1211.5
2016-Feb-07 21:30N 41°25' W 009°58'1111.3
2016-Feb-07 20:33N 41°14' W 009°57'1312.0
2016-Feb-07 19:27N 41°01' W 009°57'1111.9
2016-Feb-07 18:33N 40°51' W 009°57'1110.9
2016-Feb-07 17:30N 40°39' W 009°57'1010.7
2016-Feb-07 16:33N 40°29' W 009°57'1111.4
2016-Feb-07 15:33N 40°18' W 009°57'1111.3
2016-Feb-07 14:33N 40°06' W 009°57'1410.8
2016-Feb-07 13:18N 39°53' W 009°57'911.3
2016-Feb-07 12:30N 39°44' W 009°57'1010.9
2016-Feb-07 11:33N 39°33' W 009°59'1110.7
2016-Feb-07 10:33N 39°23' W 009°57'1111.3
2016-Feb-07 09:33N 39°12' W 009°58'1111.1
2016-Feb-07 08:33N 39°01' W 009°58'1111.0
2016-Feb-07 07:33N 38°50' W 009°58'1110.5
2016-Feb-07 06:33N 38°39' W 009°56'1010.4
2016-Feb-07 05:33N 38°29' W 009°53'1111.4
2016-Feb-07 04:33N 38°18' W 009°50'1010.1
2016-Feb-07 03:33N 38°08' W 009°47'1211.7
2016-Feb-07 02:34N 37°57' W 009°44'1212.1
2016-Feb-07 01:32N 37°45' W 009°40'1212.2
2016-Feb-07 00:32N 37°33' W 009°36'1312.8
2016-Feb-06 23:30N 37°20' W 009°33'1111.5
2016-Feb-06 22:33N 37°09' W 009°30'1212.2
2016-Feb-06 21:33N 36°57' W 009°26'1211.8
2016-Feb-06 20:33N 36°47' W 009°20'1211.8
2016-Feb-06 19:33N 36°39' W 009°08'1211.5
2016-Feb-06 18:30N 36°37' W 008°54'1212.9
2016-Feb-06 17:33N 36°34' W 008°39'1111.0
2016-Feb-06 16:33N 36°32' W 008°25'1212.0
2016-Feb-06 15:33N 36°29' W 008°11'10912.1
2016-Feb-06 06:29N 35°58' W 006°01'1111.9
2016-Feb-06 05:34N 35°57' W 005°47'1010.1
2016-Feb-06 04:33N 35°58' W 005°35'9 9.1
2016-Feb-06 03:33N 35°60' W 005°24'1010.5
2016-Feb-06 02:34N 36°01' W 005°11'21511.7
2016-Feb-05 08:08N 36°41' W 000°48'  
2016-Feb-02 22:30N 36°35' E 013°35'1111.9
2016-Feb-02 21:33N 36°33' E 013°48'1211.8
2016-Feb-02 20:33N 36°32' E 014°03'1212.2
2016-Feb-02 19:33N 36°30' E 014°18'1211.8
2016-Feb-02 18:33N 36°27' E 014°32'1212.0
2016-Feb-02 17:32N 36°26' E 014°47'  
Track history (hours):
 
Tides and Currents Weather Stations Pressure Air Temp Water Temp Dewpoint Dewpoint Depression Visibility Wind Speed Wind Dir Waves Ship Positions

Minerva Grace

Last reported at 2016-Feb-08 00:27 UTC. Time now 2016-Feb-09 07:41 UTC.
Position N 41°60' W 009°57'.

Length 183 m; draft 10.5 m.

Type: Ship (hazmat cat C). MMSI: 241193000.

Date/timePositionNaut miles runAvg speedWind from/ knotsBaromVisibWave heightAir tempDewpointWater temp
2016-Feb-08 00:27N 41°60' W 009°57'1111.7
2016-Feb-07 23:33N 41°49' W 009°57'1212.0
2016-Feb-07 22:33N 41°37' W 009°57'1211.5
2016-Feb-07 21:30N 41°25' W 009°58'1111.3
2016-Feb-07 20:33N 41°14' W 009°57'1312.0
2016-Feb-07 19:27N 41°01' W 009°57'1111.9
2016-Feb-07 18:33N 40°51' W 009°57'1110.9
2016-Feb-07 17:30N 40°39' W 009°57'1010.7
2016-Feb-07 16:33N 40°29' W 009°57'1111.4
2016-Feb-07 15:33N 40°18' W 009°57'1111.3
2016-Feb-07 14:33N 40°06' W 009°57'1410.8
2016-Feb-07 13:18N 39°53' W 009°57'911.3
2016-Feb-07 12:30N 39°44' W 009°57'1010.9
2016-Feb-07 11:33N 39°33' W 009°59'1110.7
2016-Feb-07 10:33N 39°23' W 009°57'1111.3
2016-Feb-07 09:33N 39°12' W 009°58'1111.1
2016-Feb-07 08:33N 39°01' W 009°58'1111.0
2016-Feb-07 07:33N 38°50' W 009°58'1110.5
2016-Feb-07 06:33N 38°39' W 009°56'1010.4
2016-Feb-07 05:33N 38°29' W 009°53'1111.4
2016-Feb-07 04:33N 38°18' W 009°50'1010.1
2016-Feb-07 03:33N 38°08' W 009°47'1211.7
2016-Feb-07 02:34N 37°57' W 009°44'1212.1
2016-Feb-07 01:32N 37°45' W 009°40'1212.2
2016-Feb-07 00:32N 37°33' W 009°36'1312.8
2016-Feb-06 23:30N 37°20' W 009°33'1111.5
2016-Feb-06 22:33N 37°09' W 009°30'1212.2
2016-Feb-06 21:33N 36°57' W 009°26'1211.8
2016-Feb-06 20:33N 36°47' W 009°20'1211.8
2016-Feb-06 19:33N 36°39' W 009°08'1211.5
2016-Feb-06 18:30N 36°37' W 008°54'1212.9
2016-Feb-06 17:33N 36°34' W 008°39'1111.0
2016-Feb-06 16:33N 36°32' W 008°25'1212.0
2016-Feb-06 15:33N 36°29' W 008°11'10912.1
2016-Feb-06 06:29N 35°58' W 006°01'1111.9
2016-Feb-06 05:34N 35°57' W 005°47'1010.1
2016-Feb-06 04:33N 35°58' W 005°35'9 9.1
2016-Feb-06 03:33N 35°60' W 005°24'1010.5
2016-Feb-06 02:34N 36°01' W 005°11'21511.7
2016-Feb-05 08:08N 36°41' W 000°48'  
2016-Feb-02 22:30N 36°35' E 013°35'1111.9
2016-Feb-02 21:33N 36°33' E 013°48'1211.8
2016-Feb-02 20:33N 36°32' E 014°03'1212.2
2016-Feb-02 19:33N 36°30' E 014°18'1211.8
2016-Feb-02 18:33N 36°27' E 014°32'1212.0
2016-Feb-02 17:32N 36°26' E 014°47'  

Dump ship's entire track history